Terminal Aerodrome Forecast
Issued by NWS Green Bay, WI

Home | Current Version | Previous Version | Graphics & Text | Print | Product List | Glossary On
Versions: 1 2 3 4 5 6 7 8 9 10 11 12 13 14 15 16 17 18 19 20 21 22 23 24 25 26 27 28
000
FTUS43 KGRB 221549 AAB
TAFGRB
TAF AMD
KGRB 221549Z 2216/2312 23005KT 1/2SM -DZ FG VV003
     FM221900 25003KT 1 1/2SM BR BKN003
     FM222100 29003KT 1SM BR OVC005
     FM230200 VRB03KT 1/2SM FG OVC003=

USA.gov is the U.S. government's official web portal to all federal, state and local government web resources and services.